sensor_id;sensor_type;location;lat;lon;timestamp;P1;durP1;ratioP1;P2;durP2;ratioP2
13981;SDS011;7065;50.880;5.502;2022-10-16T00:01:35;1.77;;;1.30;;
13981;SDS011;7065;50.880;5.502;2022-10-16T00:04:02;2.10;;;1.23;;
13981;SDS011;7065;50.880;5.502;2022-10-16T00:06:29;1.23;;;1.10;;
13981;SDS011;7065;50.880;5.502;2022-10-16T00:08:56;1.20;;;1.10;;
13981;SDS011;7065;50.880;5.502;2022-10-16T00:11:27;2.22;;;1.20;;
13981;SDS011;7065;50.880;5.502;2022-10-16T00:13:56;2.25;;;1.33;;
13981;SDS011;7065;50.880;5.502;2022-10-16T00:16:24;2.08;;;1.20;;
13981;SDS011;7065;50.880;5.502;2022-10-16T00:18:50;1.55;;;1.10;;
13981;SDS011;7065;50.880;5.502;2022-10-16T00:21:17;3.67;;;1.10;;
13981;SDS011;7065;50.880;5.502;2022-10-16T00:23:45;1.15;;;1.05;;
13981;SDS011;7065;50.880;5.502;2022-10-16T00:26:12;1.25;;;1.00;;
13981;SDS011;7065;50.880;5.502;2022-10-16T00:28:39;1.40;;;1.17;;
13981;SDS011;7065;50.880;5.502;2022-10-16T00:31:06;3.72;;;1.17;;
13981;SDS011;7065;50.880;5.502;2022-10-16T00:33:34;1.38;;;1.10;;
13981;SDS011;7065;50.880;5.502;2022-10-16T00:36:01;1.77;;;1.00;;
13981;SDS011;7065;50.880;5.502;2022-10-16T00:38:28;1.48;;;1.25;;
13981;SDS011;7065;50.880;5.502;2022-10-16T00:40:54;1.85;;;1.27;;
13981;SDS011;7065;50.880;5.502;2022-10-16T00:46:31;1.30;;;1.10;;
13981;SDS011;7065;50.880;5.502;2022-10-16T00:49:10;1.55;;;1.10;;
13981;SDS011;7065;50.880;5.502;2022-10-16T00:51:46;3.03;;;0.90;;
13981;SDS011;7065;50.880;5.502;2022-10-16T00:54:15;0.98;;;0.98;;
13981;SDS011;7065;50.880;5.502;2022-10-16T00:56:44;3.55;;;1.10;;
13981;SDS011;7065;50.880;5.502;2022-10-16T00:59:14;1.35;;;0.88;;
13981;SDS011;7065;50.880;5.502;2022-10-16T01:01:52;2.22;;;1.30;;
13981;SDS011;7065;50.880;5.502;2022-10-16T01:04:18;1.10;;;0.88;;
13981;SDS011;7065;50.880;5.502;2022-10-16T01:07:06;1.55;;;1.10;;
13981;SDS011;7065;50.880;5.502;2022-10-16T01:12:36;1.92;;;0.95;;
13981;SDS011;7065;50.880;5.502;2022-10-16T01:20:50;1.63;;;0.95;;
13981;SDS011;7065;50.880;5.502;2022-10-16T01:23:28;1.58;;;0.80;;
13981;SDS011;7065;50.880;5.502;2022-10-16T01:29:09;1.00;;;0.90;;
13981;SDS011;7065;50.880;5.502;2022-10-16T01:31:48;1.10;;;0.90;;
13981;SDS011;7065;50.880;5.502;2022-10-16T01:34:20;1.10;;;1.00;;
13981;SDS011;7065;50.880;5.502;2022-10-16T01:37:00;1.05;;;1.00;;
13981;SDS011;7065;50.880;5.502;2022-10-16T01:39:31;1.90;;;1.17;;
13981;SDS011;7065;50.880;5.502;2022-10-16T01:42:09;1.70;;;1.00;;
13981;SDS011;7065;50.880;5.502;2022-10-16T01:44:39;1.35;;;1.23;;
13981;SDS011;7065;50.880;5.502;2022-10-16T01:47:08;2.58;;;0.90;;
13981;SDS011;7065;50.880;5.502;2022-10-16T01:49:37;1.10;;;0.88;;
13981;SDS011;7065;50.880;5.502;2022-10-16T01:52:06;1.88;;;1.00;;
13981;SDS011;7065;50.880;5.502;2022-10-16T01:54:36;1.88;;;1.15;;
13981;SDS011;7065;50.880;5.502;2022-10-16T01:57:03;3.05;;;1.40;;
13981;SDS011;7065;50.880;5.502;2022-10-16T01:59:31;2.78;;;1.05;;
13981;SDS011;7065;50.880;5.502;2022-10-16T02:02:04;2.13;;;1.15;;
13981;SDS011;7065;50.880;5.502;2022-10-16T02:04:34;1.45;;;1.00;;
13981;SDS011;7065;50.880;5.502;2022-10-16T02:07:07;1.20;;;1.08;;
13981;SDS011;7065;50.880;5.502;2022-10-16T02:09:33;1.10;;;1.00;;
13981;SDS011;7065;50.880;5.502;2022-10-16T02:12:01;1.38;;;0.85;;
13981;SDS011;7065;50.880;5.502;2022-10-16T02:14:32;1.00;;;0.90;;
13981;SDS011;7065;50.880;5.502;2022-10-16T02:16:58;2.88;;;1.08;;
13981;SDS011;7065;50.880;5.502;2022-10-16T02:19:23;1.95;;;1.10;;
13981;SDS011;7065;50.880;5.502;2022-10-16T02:22:00;1.13;;;1.10;;
13981;SDS011;7065;50.880;5.502;2022-10-16T02:27:02;2.63;;;1.38;;
13981;SDS011;7065;50.880;5.502;2022-10-16T02:29:38;2.65;;;1.30;;
13981;SDS011;7065;50.880;5.502;2022-10-16T02:32:09;1.38;;;1.25;;
13981;SDS011;7065;50.880;5.502;2022-10-16T02:34:37;1.23;;;1.20;;
13981;SDS011;7065;50.880;5.502;2022-10-16T02:37:05;1.20;;;0.98;;
13981;SDS011;7065;50.880;5.502;2022-10-16T02:39:31;1.85;;;1.10;;
13981;SDS011;7065;50.880;5.502;2022-10-16T02:41:58;1.40;;;1.13;;
13981;SDS011;7065;50.880;5.502;2022-10-16T02:44:24;2.55;;;1.15;;
13981;SDS011;7065;50.880;5.502;2022-10-16T02:46:49;4.10;;;1.45;;
13981;SDS011;7065;50.880;5.502;2022-10-16T02:49:15;2.35;;;1.30;;
13981;SDS011;7065;50.880;5.502;2022-10-16T02:51:42;1.52;;;1.25;;
13981;SDS011;7065;50.880;5.502;2022-10-16T02:54:08;1.10;;;1.00;;
13981;SDS011;7065;50.880;5.502;2022-10-16T02:56:34;3.20;;;1.42;;
13981;SDS011;7065;50.880;5.502;2022-10-16T02:58:59;1.23;;;1.13;;
13981;SDS011;7065;50.880;5.502;2022-10-16T03:01:25;1.52;;;1.17;;
13981;SDS011;7065;50.880;5.502;2022-10-16T03:03:51;3.35;;;1.33;;
13981;SDS011;7065;50.880;5.502;2022-10-16T03:06:16;1.80;;;1.23;;
13981;SDS011;7065;50.880;5.502;2022-10-16T03:08:42;1.45;;;1.20;;
13981;SDS011;7065;50.880;5.502;2022-10-16T03:11:07;1.60;;;1.30;;
13981;SDS011;7065;50.880;5.502;2022-10-16T03:13:33;2.38;;;1.77;;
13981;SDS011;7065;50.880;5.502;2022-10-16T03:15:59;2.50;;;1.60;;
13981;SDS011;7065;50.880;5.502;2022-10-16T03:18:24;5.35;;;1.60;;
13981;SDS011;7065;50.880;5.502;2022-10-16T03:20:50;2.35;;;1.50;;
13981;SDS011;7065;50.880;5.502;2022-10-16T03:23:16;2.95;;;1.55;;
13981;SDS011;7065;50.880;5.502;2022-10-16T03:25:41;5.47;;;1.70;;
13981;SDS011;7065;50.880;5.502;2022-10-16T03:28:07;3.80;;;1.55;;
13981;SDS011;7065;50.880;5.502;2022-10-16T03:30:33;2.25;;;2.05;;
13981;SDS011;7065;50.880;5.502;2022-10-16T03:32:59;2.92;;;1.50;;
13981;SDS011;7065;50.880;5.502;2022-10-16T03:35:24;2.15;;;1.42;;
13981;SDS011;7065;50.880;5.502;2022-10-16T03:37:50;1.70;;;1.58;;
13981;SDS011;7065;50.880;5.502;2022-10-16T03:40:16;2.10;;;1.77;;
13981;SDS011;7065;50.880;5.502;2022-10-16T03:42:42;3.83;;;1.60;;
13981;SDS011;7065;50.880;5.502;2022-10-16T03:45:09;1.65;;;1.55;;
13981;SDS011;7065;50.880;5.502;2022-10-16T03:47:35;2.90;;;1.77;;
13981;SDS011;7065;50.880;5.502;2022-10-16T03:50:01;1.95;;;1.73;;
13981;SDS011;7065;50.880;5.502;2022-10-16T03:52:28;3.55;;;1.85;;
13981;SDS011;7065;50.880;5.502;2022-10-16T03:54:53;3.28;;;2.08;;
13981;SDS011;7065;50.880;5.502;2022-10-16T03:57:19;2.42;;;1.95;;
13981;SDS011;7065;50.880;5.502;2022-10-16T03:59:45;3.20;;;2.35;;
13981;SDS011;7065;50.880;5.502;2022-10-16T04:02:11;2.30;;;1.60;;
13981;SDS011;7065;50.880;5.502;2022-10-16T04:04:37;2.45;;;1.98;;
13981;SDS011;7065;50.880;5.502;2022-10-16T04:07:03;5.15;;;1.80;;
13981;SDS011;7065;50.880;5.502;2022-10-16T04:09:29;3.67;;;2.05;;
13981;SDS011;7065;50.880;5.502;2022-10-16T04:11:55;2.17;;;2.05;;
13981;SDS011;7065;50.880;5.502;2022-10-16T04:14:20;3.17;;;1.88;;
13981;SDS011;7065;50.880;5.502;2022-10-16T04:16:46;2.30;;;2.10;;
13981;SDS011;7065;50.880;5.502;2022-10-16T04:19:12;3.58;;;2.08;;
13981;SDS011;7065;50.880;5.502;2022-10-16T04:21:38;2.35;;;2.00;;
13981;SDS011;7065;50.880;5.502;2022-10-16T04:24:03;2.55;;;2.33;;
13981;SDS011;7065;50.880;5.502;2022-10-16T04:26:29;2.33;;;2.13;;
13981;SDS011;7065;50.880;5.502;2022-10-16T04:28:55;6.10;;;2.20;;
13981;SDS011;7065;50.880;5.502;2022-10-16T04:31:21;2.65;;;2.45;;
13981;SDS011;7065;50.880;5.502;2022-10-16T04:33:47;3.50;;;2.60;;
13981;SDS011;7065;50.880;5.502;2022-10-16T04:36:13;5.05;;;2.85;;
13981;SDS011;7065;50.880;5.502;2022-10-16T04:38:38;3.47;;;2.53;;
13981;SDS011;7065;50.880;5.502;2022-10-16T04:41:05;2.90;;;2.70;;
13981;SDS011;7065;50.880;5.502;2022-10-16T04:43:31;3.47;;;3.10;;
13981;SDS011;7065;50.880;5.502;2022-10-16T04:45:58;3.63;;;2.70;;
13981;SDS011;7065;50.880;5.502;2022-10-16T04:48:24;3.55;;;2.80;;
13981;SDS011;7065;50.880;5.502;2022-10-16T04:50:49;4.70;;;3.20;;
13981;SDS011;7065;50.880;5.502;2022-10-16T04:53:15;3.67;;;3.08;;
13981;SDS011;7065;50.880;5.502;2022-10-16T04:55:41;3.45;;;2.65;;
13981;SDS011;7065;50.880;5.502;2022-10-16T04:58:07;3.95;;;3.00;;
13981;SDS011;7065;50.880;5.502;2022-10-16T05:00:33;4.40;;;3.17;;
13981;SDS011;7065;50.880;5.502;2022-10-16T05:02:59;3.67;;;3.35;;
13981;SDS011;7065;50.880;5.502;2022-10-16T05:05:26;5.28;;;3.08;;
13981;SDS011;7065;50.880;5.502;2022-10-16T05:07:52;3.67;;;3.38;;
13981;SDS011;7065;50.880;5.502;2022-10-16T05:10:18;4.78;;;3.10;;
13981;SDS011;7065;50.880;5.502;2022-10-16T05:12:44;6.43;;;3.40;;
13981;SDS011;7065;50.880;5.502;2022-10-16T05:15:11;3.20;;;2.90;;
13981;SDS011;7065;50.880;5.502;2022-10-16T05:17:36;3.38;;;3.08;;
13981;SDS011;7065;50.880;5.502;2022-10-16T05:20:02;4.43;;;3.35;;
13981;SDS011;7065;50.880;5.502;2022-10-16T05:22:28;5.28;;;3.42;;
13981;SDS011;7065;50.880;5.502;2022-10-16T05:24:54;4.05;;;3.67;;
13981;SDS011;7065;50.880;5.502;2022-10-16T05:27:19;3.92;;;3.60;;
13981;SDS011;7065;50.880;5.502;2022-10-16T05:29:46;4.13;;;3.40;;
13981;SDS011;7065;50.880;5.502;2022-10-16T05:32:16;3.95;;;3.60;;
13981;SDS011;7065;50.880;5.502;2022-10-16T05:34:43;3.95;;;3.55;;
13981;SDS011;7065;50.880;5.502;2022-10-16T05:37:08;4.25;;;3.80;;
13981;SDS011;7065;50.880;5.502;2022-10-16T05:39:34;5.80;;;3.78;;
13981;SDS011;7065;50.880;5.502;2022-10-16T05:42:01;5.00;;;3.70;;
13981;SDS011;7065;50.880;5.502;2022-10-16T05:44:27;4.18;;;3.50;;
13981;SDS011;7065;50.880;5.502;2022-10-16T05:46:53;5.70;;;4.07;;
13981;SDS011;7065;50.880;5.502;2022-10-16T05:49:18;5.05;;;3.85;;
13981;SDS011;7065;50.880;5.502;2022-10-16T05:51:44;4.80;;;3.78;;
13981;SDS011;7065;50.880;5.502;2022-10-16T05:54:10;6.18;;;3.67;;
13981;SDS011;7065;50.880;5.502;2022-10-16T05:56:35;4.00;;;3.50;;
13981;SDS011;7065;50.880;5.502;2022-10-16T05:59:02;3.72;;;3.08;;
13981;SDS011;7065;50.880;5.502;2022-10-16T06:01:29;3.10;;;2.80;;
13981;SDS011;7065;50.880;5.502;2022-10-16T06:03:55;3.67;;;3.10;;
13981;SDS011;7065;50.880;5.502;2022-10-16T06:06:24;3.63;;;3.33;;
13981;SDS011;7065;50.880;5.502;2022-10-16T06:08:51;3.33;;;3.00;;
13981;SDS011;7065;50.880;5.502;2022-10-16T06:11:18;3.70;;;3.00;;
13981;SDS011;7065;50.880;5.502;2022-10-16T06:13:49;3.55;;;3.15;;
13981;SDS011;7065;50.880;5.502;2022-10-16T06:16:15;3.78;;;3.10;;
13981;SDS011;7065;50.880;5.502;2022-10-16T06:18:41;2.85;;;2.60;;
13981;SDS011;7065;50.880;5.502;2022-10-16T06:21:08;5.85;;;3.22;;
13981;SDS011;7065;50.880;5.502;2022-10-16T06:23:41;3.00;;;2.80;;
13981;SDS011;7065;50.880;5.502;2022-10-16T06:26:08;2.80;;;2.38;;
13981;SDS011;7065;50.880;5.502;2022-10-16T06:28:35;4.05;;;3.03;;
13981;SDS011;7065;50.880;5.502;2022-10-16T06:31:01;3.45;;;2.80;;
13981;SDS011;7065;50.880;5.502;2022-10-16T06:33:28;3.22;;;2.75;;
13981;SDS011;7065;50.880;5.502;2022-10-16T06:35:59;4.40;;;2.80;;
13981;SDS011;7065;50.880;5.502;2022-10-16T06:38:30;3.67;;;3.20;;
13981;SDS011;7065;50.880;5.502;2022-10-16T06:40:56;4.35;;;2.72;;
13981;SDS011;7065;50.880;5.502;2022-10-16T06:43:22;3.22;;;2.85;;
13981;SDS011;7065;50.880;5.502;2022-10-16T06:45:54;3.40;;;3.17;;
13981;SDS011;7065;50.880;5.502;2022-10-16T06:48:21;4.25;;;3.08;;
13981;SDS011;7065;50.880;5.502;2022-10-16T06:53:22;5.28;;;3.17;;
13981;SDS011;7065;50.880;5.502;2022-10-16T06:55:48;3.70;;;2.85;;
13981;SDS011;7065;50.880;5.502;2022-10-16T06:58:14;4.07;;;2.80;;
13981;SDS011;7065;50.880;5.502;2022-10-16T07:00:39;4.97;;;2.75;;
13981;SDS011;7065;50.880;5.502;2022-10-16T07:03:05;3.70;;;2.90;;
13981;SDS011;7065;50.880;5.502;2022-10-16T07:05:31;3.90;;;2.53;;
13981;SDS011;7065;50.880;5.502;2022-10-16T07:07:56;4.32;;;2.97;;
13981;SDS011;7065;50.880;5.502;2022-10-16T07:10:22;3.00;;;2.72;;
13981;SDS011;7065;50.880;5.502;2022-10-16T07:12:49;4.93;;;2.75;;
13981;SDS011;7065;50.880;5.502;2022-10-16T07:15:15;3.05;;;2.85;;
13981;SDS011;7065;50.880;5.502;2022-10-16T07:17:40;4.32;;;2.63;;
13981;SDS011;7065;50.880;5.502;2022-10-16T07:20:06;2.95;;;2.20;;
13981;SDS011;7065;50.880;5.502;2022-10-16T07:22:32;6.15;;;2.63;;
13981;SDS011;7065;50.880;5.502;2022-10-16T07:24:58;2.40;;;2.15;;
13981;SDS011;7065;50.880;5.502;2022-10-16T07:27:24;3.05;;;2.33;;
13981;SDS011;7065;50.880;5.502;2022-10-16T07:29:51;2.25;;;2.05;;
13981;SDS011;7065;50.880;5.502;2022-10-16T07:32:16;2.72;;;2.47;;
13981;SDS011;7065;50.880;5.502;2022-10-16T07:34:42;3.72;;;2.25;;
13981;SDS011;7065;50.880;5.502;2022-10-16T07:37:08;2.63;;;2.13;;
13981;SDS011;7065;50.880;5.502;2022-10-16T07:39:33;3.83;;;2.25;;
13981;SDS011;7065;50.880;5.502;2022-10-16T07:41:59;2.55;;;2.30;;
13981;SDS011;7065;50.880;5.502;2022-10-16T07:44:25;4.15;;;1.98;;
13981;SDS011;7065;50.880;5.502;2022-10-16T07:46:50;3.80;;;1.98;;
13981;SDS011;7065;50.880;5.502;2022-10-16T07:49:16;2.22;;;2.00;;
13981;SDS011;7065;50.880;5.502;2022-10-16T07:51:41;1.70;;;1.60;;
13981;SDS011;7065;50.880;5.502;2022-10-16T07:54:08;3.58;;;2.13;;
13981;SDS011;7065;50.880;5.502;2022-10-16T07:56:34;2.85;;;1.85;;
13981;SDS011;7065;50.880;5.502;2022-10-16T07:59:00;2.47;;;2.28;;
13981;SDS011;7065;50.880;5.502;2022-10-16T08:01:26;4.13;;;2.40;;
13981;SDS011;7065;50.880;5.502;2022-10-16T08:03:51;2.88;;;2.03;;
13981;SDS011;7065;50.880;5.502;2022-10-16T08:06:17;3.30;;;2.15;;
13981;SDS011;7065;50.880;5.502;2022-10-16T08:08:44;2.33;;;2.00;;
13981;SDS011;7065;50.880;5.502;2022-10-16T08:11:10;2.80;;;2.08;;
13981;SDS011;7065;50.880;5.502;2022-10-16T08:13:36;2.40;;;2.20;;
13981;SDS011;7065;50.880;5.502;2022-10-16T08:16:02;3.38;;;1.90;;
13981;SDS011;7065;50.880;5.502;2022-10-16T08:18:33;3.17;;;2.30;;
13981;SDS011;7065;50.880;5.502;2022-10-16T08:21:05;2.05;;;1.80;;
13981;SDS011;7065;50.880;5.502;2022-10-16T08:23:32;1.85;;;1.73;;
13981;SDS011;7065;50.880;5.502;2022-10-16T08:26:02;1.85;;;1.70;;
13981;SDS011;7065;50.880;5.502;2022-10-16T08:28:31;3.42;;;1.90;;
13981;SDS011;7065;50.880;5.502;2022-10-16T08:31:04;2.83;;;1.80;;
13981;SDS011;7065;50.880;5.502;2022-10-16T08:33:34;2.05;;;1.50;;
13981;SDS011;7065;50.880;5.502;2022-10-16T08:36:00;2.10;;;1.63;;
13981;SDS011;7065;50.880;5.502;2022-10-16T08:38:27;3.33;;;1.50;;
13981;SDS011;7065;50.880;5.502;2022-10-16T08:40:52;3.22;;;1.63;;
13981;SDS011;7065;50.880;5.502;2022-10-16T08:46:49;2.38;;;1.40;;
13981;SDS011;7065;50.880;5.502;2022-10-16T08:49:16;2.45;;;1.60;;
13981;SDS011;7065;50.880;5.502;2022-10-16T08:51:43;2.17;;;1.20;;
13981;SDS011;7065;50.880;5.502;2022-10-16T08:56:56;2.40;;;1.30;;
13981;SDS011;7065;50.880;5.502;2022-10-16T08:59:31;1.70;;;1.25;;
13981;SDS011;7065;50.880;5.502;2022-10-16T09:01:57;2.17;;;1.20;;
13981;SDS011;7065;50.880;5.502;2022-10-16T09:12:37;2.70;;;1.33;;
13981;SDS011;7065;50.880;5.502;2022-10-16T09:15:14;3.38;;;1.20;;
13981;SDS011;7065;50.880;5.502;2022-10-16T09:23:16;2.78;;;1.02;;
13981;SDS011;7065;50.880;5.502;2022-10-16T09:25:48;1.77;;;0.90;;
13981;SDS011;7065;50.880;5.502;2022-10-16T09:28:16;1.15;;;0.77;;
13981;SDS011;7065;50.880;5.502;2022-10-16T09:30:42;2.67;;;1.00;;
13981;SDS011;7065;50.880;5.502;2022-10-16T09:33:10;2.38;;;0.82;;
13981;SDS011;7065;50.880;5.502;2022-10-16T09:35:38;4.72;;;1.42;;
13981;SDS011;7065;50.880;5.502;2022-10-16T09:38:06;1.70;;;0.80;;
13981;SDS011;7065;50.880;5.502;2022-10-16T09:40:33;2.83;;;1.00;;
13981;SDS011;7065;50.880;5.502;2022-10-16T09:45:42;3.58;;;1.02;;
13981;SDS011;7065;50.880;5.502;2022-10-16T09:48:10;2.35;;;1.23;;
13981;SDS011;7065;50.880;5.502;2022-10-16T09:50:37;3.40;;;1.33;;
13981;SDS011;7065;50.880;5.502;2022-10-16T09:53:04;4.43;;;1.38;;
13981;SDS011;7065;50.880;5.502;2022-10-16T09:55:31;4.18;;;1.10;;
13981;SDS011;7065;50.880;5.502;2022-10-16T09:57:56;2.30;;;1.08;;
13981;SDS011;7065;50.880;5.502;2022-10-16T10:00:22;1.35;;;0.90;;
13981;SDS011;7065;50.880;5.502;2022-10-16T10:02:49;2.90;;;1.20;;
13981;SDS011;7065;50.880;5.502;2022-10-16T10:05:20;3.30;;;1.10;;
13981;SDS011;7065;50.880;5.502;2022-10-16T10:07:53;2.47;;;1.20;;
13981;SDS011;7065;50.880;5.502;2022-10-16T10:10:31;1.75;;;1.10;;
13981;SDS011;7065;50.880;5.502;2022-10-16T10:12:59;4.03;;;1.15;;
13981;SDS011;7065;50.880;5.502;2022-10-16T10:15:25;3.28;;;1.27;;
13981;SDS011;7065;50.880;5.502;2022-10-16T10:17:54;2.80;;;1.02;;
13981;SDS011;7065;50.880;5.502;2022-10-16T10:23:00;2.28;;;1.08;;
13981;SDS011;7065;50.880;5.502;2022-10-16T10:38:59;2.80;;;1.00;;
13981;SDS011;7065;50.880;5.502;2022-10-16T10:47:26;2.70;;;1.00;;
13981;SDS011;7065;50.880;5.502;2022-10-16T10:50:08;1.83;;;1.00;;
13981;SDS011;7065;50.880;5.502;2022-10-16T11:06:17;1.95;;;0.90;;
13981;SDS011;7065;50.880;5.502;2022-10-16T11:09:14;2.30;;;1.20;;
13981;SDS011;7065;50.880;5.502;2022-10-16T11:14:15;3.22;;;1.30;;
13981;SDS011;7065;50.880;5.502;2022-10-16T11:16:48;1.70;;;0.80;;
13981;SDS011;7065;50.880;5.502;2022-10-16T11:19:39;1.95;;;0.98;;
13981;SDS011;7065;50.880;5.502;2022-10-16T11:22:20;1.88;;;0.80;;
13981;SDS011;7065;50.880;5.502;2022-10-16T11:38:54;2.20;;;0.95;;
13981;SDS011;7065;50.880;5.502;2022-10-16T11:42:01;2.85;;;0.88;;
13981;SDS011;7065;50.880;5.502;2022-10-16T11:53:01;2.22;;;0.93;;
13981;SDS011;7065;50.880;5.502;2022-10-16T11:55:48;2.80;;;0.90;;
13981;SDS011;7065;50.880;5.502;2022-10-16T12:01:00;2.20;;;0.90;;
13981;SDS011;7065;50.880;5.502;2022-10-16T12:03:45;1.70;;;0.80;;
13981;SDS011;7065;50.880;5.502;2022-10-16T12:06:37;3.85;;;0.90;;
13981;SDS011;7065;50.880;5.502;2022-10-16T12:11:55;4.43;;;1.27;;
13981;SDS011;7065;50.880;5.502;2022-10-16T12:14:32;1.23;;;0.80;;
13981;SDS011;7065;50.880;5.502;2022-10-16T12:17:20;0.88;;;0.77;;
13981;SDS011;7065;50.880;5.502;2022-10-16T12:22:50;4.72;;;1.13;;
13981;SDS011;7065;50.880;5.502;2022-10-16T12:30:31;1.25;;;0.70;;
13981;SDS011;7065;50.880;5.502;2022-10-16T12:33:04;3.53;;;0.80;;
13981;SDS011;7065;50.880;5.502;2022-10-16T12:35:35;2.17;;;0.70;;
13981;SDS011;7065;50.880;5.502;2022-10-16T12:38:25;1.23;;;0.80;;
13981;SDS011;7065;50.880;5.502;2022-10-16T12:41:11;1.65;;;1.05;;
13981;SDS011;7065;50.880;5.502;2022-10-16T12:43:46;2.40;;;0.98;;
13981;SDS011;7065;50.880;5.502;2022-10-16T12:48:39;1.60;;;0.70;;
13981;SDS011;7065;50.880;5.502;2022-10-16T12:51:12;1.75;;;0.75;;
13981;SDS011;7065;50.880;5.502;2022-10-16T12:54:01;1.20;;;0.60;;
13981;SDS011;7065;50.880;5.502;2022-10-16T13:07:55;1.60;;;0.52;;
13981;SDS011;7065;50.880;5.502;2022-10-16T13:10:50;1.58;;;0.60;;
13981;SDS011;7065;50.880;5.502;2022-10-16T13:13:32;2.20;;;0.57;;
13981;SDS011;7065;50.880;5.502;2022-10-16T13:16:22;1.95;;;0.85;;
13981;SDS011;7065;50.880;5.502;2022-10-16T13:21:57;1.50;;;0.70;;
13981;SDS011;7065;50.880;5.502;2022-10-16T13:26:57;1.10;;;0.65;;
13981;SDS011;7065;50.880;5.502;2022-10-16T13:29:33;1.23;;;0.75;;
13981;SDS011;7065;50.880;5.502;2022-10-16T13:31:59;2.13;;;0.57;;
13981;SDS011;7065;50.880;5.502;2022-10-16T13:34:31;1.52;;;0.50;;
13981;SDS011;7065;50.880;5.502;2022-10-16T13:36:57;1.17;;;0.50;;
13981;SDS011;7065;50.880;5.502;2022-10-16T13:39:26;1.25;;;0.52;;
13981;SDS011;7065;50.880;5.502;2022-10-16T13:44:43;2.28;;;0.57;;
13981;SDS011;7065;50.880;5.502;2022-10-16T13:47:18;1.95;;;0.45;;
13981;SDS011;7065;50.880;5.502;2022-10-16T13:50:04;1.27;;;0.60;;
13981;SDS011;7065;50.880;5.502;2022-10-16T13:52:31;2.05;;;0.73;;
13981;SDS011;7065;50.880;5.502;2022-10-16T13:54:57;1.50;;;0.60;;
13981;SDS011;7065;50.880;5.502;2022-10-16T13:57:23;1.27;;;0.40;;
13981;SDS011;7065;50.880;5.502;2022-10-16T13:59:50;1.58;;;0.50;;
13981;SDS011;7065;50.880;5.502;2022-10-16T14:02:21;1.13;;;0.50;;
13981;SDS011;7065;50.880;5.502;2022-10-16T14:04:51;1.30;;;0.63;;
13981;SDS011;7065;50.880;5.502;2022-10-16T14:07:20;1.88;;;0.70;;
13981;SDS011;7065;50.880;5.502;2022-10-16T14:09:52;1.90;;;0.52;;
13981;SDS011;7065;50.880;5.502;2022-10-16T14:12:19;1.17;;;0.60;;
13981;SDS011;7065;50.880;5.502;2022-10-16T14:14:47;1.13;;;0.60;;
13981;SDS011;7065;50.880;5.502;2022-10-16T14:20:00;2.65;;;0.77;;
13981;SDS011;7065;50.880;5.502;2022-10-16T14:22:30;2.00;;;0.80;;
13981;SDS011;7065;50.880;5.502;2022-10-16T14:25:21;1.58;;;0.63;;
13981;SDS011;7065;50.880;5.502;2022-10-16T14:27:57;1.30;;;0.60;;
13981;SDS011;7065;50.880;5.502;2022-10-16T14:30:48;1.90;;;0.90;;
13981;SDS011;7065;50.880;5.502;2022-10-16T14:33:20;1.02;;;0.60;;
13981;SDS011;7065;50.880;5.502;2022-10-16T14:36:01;1.13;;;0.57;;
13981;SDS011;7065;50.880;5.502;2022-10-16T14:38:29;1.95;;;0.70;;
13981;SDS011;7065;50.880;5.502;2022-10-16T14:40:57;2.70;;;0.70;;
13981;SDS011;7065;50.880;5.502;2022-10-16T14:43:28;1.50;;;0.55;;
13981;SDS011;7065;50.880;5.502;2022-10-16T14:45:59;0.82;;;0.75;;
13981;SDS011;7065;50.880;5.502;2022-10-16T14:48:28;2.92;;;0.80;;
13981;SDS011;7065;50.880;5.502;2022-10-16T14:50:55;1.10;;;0.90;;
13981;SDS011;7065;50.880;5.502;2022-10-16T14:53:21;4.05;;;0.90;;
13981;SDS011;7065;50.880;5.502;2022-10-16T14:55:46;2.55;;;0.60;;
13981;SDS011;7065;50.880;5.502;2022-10-16T14:58:17;2.63;;;0.80;;
13981;SDS011;7065;50.880;5.502;2022-10-16T15:00:46;3.22;;;1.00;;
13981;SDS011;7065;50.880;5.502;2022-10-16T15:03:12;3.58;;;0.80;;
13981;SDS011;7065;50.880;5.502;2022-10-16T15:05:39;2.58;;;1.05;;
13981;SDS011;7065;50.880;5.502;2022-10-16T15:08:04;2.72;;;1.50;;
13981;SDS011;7065;50.880;5.502;2022-10-16T15:10:30;2.30;;;1.60;;
13981;SDS011;7065;50.880;5.502;2022-10-16T15:12:57;3.13;;;1.40;;
13981;SDS011;7065;50.880;5.502;2022-10-16T15:18:02;3.08;;;1.40;;
13981;SDS011;7065;50.880;5.502;2022-10-16T15:20:30;3.03;;;1.38;;
13981;SDS011;7065;50.880;5.502;2022-10-16T15:23:00;2.90;;;1.13;;
13981;SDS011;7065;50.880;5.502;2022-10-16T15:25:50;2.65;;;1.55;;
13981;SDS011;7065;50.880;5.502;2022-10-16T15:28:18;5.18;;;2.20;;
13981;SDS011;7065;50.880;5.502;2022-10-16T15:30:45;3.15;;;2.33;;
13981;SDS011;7065;50.880;5.502;2022-10-16T15:33:16;2.30;;;1.90;;
13981;SDS011;7065;50.880;5.502;2022-10-16T15:35:46;2.10;;;1.80;;
13981;SDS011;7065;50.880;5.502;2022-10-16T15:38:13;3.65;;;1.85;;
13981;SDS011;7065;50.880;5.502;2022-10-16T15:40:40;2.03;;;1.67;;
13981;SDS011;7065;50.880;5.502;2022-10-16T15:43:06;3.83;;;1.70;;
13981;SDS011;7065;50.880;5.502;2022-10-16T15:45:32;2.22;;;1.15;;
13981;SDS011;7065;50.880;5.502;2022-10-16T15:47:58;3.40;;;1.33;;
13981;SDS011;7065;50.880;5.502;2022-10-16T15:50:24;3.78;;;1.20;;
13981;SDS011;7065;50.880;5.502;2022-10-16T15:52:50;4.30;;;1.40;;
13981;SDS011;7065;50.880;5.502;2022-10-16T15:55:16;2.78;;;1.30;;
13981;SDS011;7065;50.880;5.502;2022-10-16T15:57:43;2.63;;;1.20;;
13981;SDS011;7065;50.880;5.502;2022-10-16T16:00:11;1.98;;;1.20;;
13981;SDS011;7065;50.880;5.502;2022-10-16T16:02:39;4.28;;;1.50;;
13981;SDS011;7065;50.880;5.502;2022-10-16T16:05:05;2.47;;;1.50;;
13981;SDS011;7065;50.880;5.502;2022-10-16T16:07:36;1.42;;;1.33;;
13981;SDS011;7065;50.880;5.502;2022-10-16T16:10:04;1.70;;;1.50;;
13981;SDS011;7065;50.880;5.502;2022-10-16T16:12:31;2.80;;;1.40;;
13981;SDS011;7065;50.880;5.502;2022-10-16T16:14:57;1.98;;;1.40;;
13981;SDS011;7065;50.880;5.502;2022-10-16T16:17:23;3.15;;;1.58;;
13981;SDS011;7065;50.880;5.502;2022-10-16T16:19:49;3.65;;;2.00;;
13981;SDS011;7065;50.880;5.502;2022-10-16T16:22:15;2.05;;;1.40;;
13981;SDS011;7065;50.880;5.502;2022-10-16T16:24:41;3.05;;;1.58;;
13981;SDS011;7065;50.880;5.502;2022-10-16T16:27:06;1.80;;;1.20;;
13981;SDS011;7065;50.880;5.502;2022-10-16T16:29:32;1.95;;;1.50;;
13981;SDS011;7065;50.880;5.502;2022-10-16T16:31:58;2.75;;;1.77;;
13981;SDS011;7065;50.880;5.502;2022-10-16T16:34:28;3.30;;;1.40;;
13981;SDS011;7065;50.880;5.502;2022-10-16T16:36:54;2.80;;;1.30;;
13981;SDS011;7065;50.880;5.502;2022-10-16T16:39:20;2.55;;;1.40;;
13981;SDS011;7065;50.880;5.502;2022-10-16T16:41:46;1.98;;;1.50;;
13981;SDS011;7065;50.880;5.502;2022-10-16T16:44:12;2.85;;;1.60;;
13981;SDS011;7065;50.880;5.502;2022-10-16T16:46:40;2.88;;;1.40;;
13981;SDS011;7065;50.880;5.502;2022-10-16T16:49:08;1.65;;;1.40;;
13981;SDS011;7065;50.880;5.502;2022-10-16T16:51:38;2.83;;;1.60;;
13981;SDS011;7065;50.880;5.502;2022-10-16T16:54:04;2.83;;;1.85;;
13981;SDS011;7065;50.880;5.502;2022-10-16T16:56:32;1.40;;;1.30;;
13981;SDS011;7065;50.880;5.502;2022-10-16T16:58:58;2.47;;;1.67;;
13981;SDS011;7065;50.880;5.502;2022-10-16T17:01:25;4.70;;;1.42;;
13981;SDS011;7065;50.880;5.502;2022-10-16T17:03:52;3.67;;;1.70;;
13981;SDS011;7065;50.880;5.502;2022-10-16T17:06:20;3.63;;;1.70;;
13981;SDS011;7065;50.880;5.502;2022-10-16T17:08:50;3.60;;;1.83;;
13981;SDS011;7065;50.880;5.502;2022-10-16T17:11:17;4.35;;;2.10;;
13981;SDS011;7065;50.880;5.502;2022-10-16T17:13:45;4.13;;;2.58;;
13981;SDS011;7065;50.880;5.502;2022-10-16T17:16:12;4.47;;;2.30;;
13981;SDS011;7065;50.880;5.502;2022-10-16T17:18:38;4.70;;;2.50;;
13981;SDS011;7065;50.880;5.502;2022-10-16T17:21:05;4.22;;;2.35;;
13981;SDS011;7065;50.880;5.502;2022-10-16T17:23:32;4.03;;;2.30;;
13981;SDS011;7065;50.880;5.502;2022-10-16T17:26:02;3.17;;;2.30;;
13981;SDS011;7065;50.880;5.502;2022-10-16T17:28:29;4.10;;;2.10;;
13981;SDS011;7065;50.880;5.502;2022-10-16T17:30:55;3.95;;;2.17;;
13981;SDS011;7065;50.880;5.502;2022-10-16T17:33:21;3.95;;;3.25;;
13981;SDS011;7065;50.880;5.502;2022-10-16T17:35:46;3.42;;;2.35;;